Weather observations for the past three days for
Tucson, Tucson International Airport
Imperial (Metric)
Date Time (mst) Wind (mph) Vis. (mi.) Weather Sky Cond. Temperature (ºF) Relative Humidity Wind Chill (°F) Heat Index (°F) Pressure Precipitation (in)
Air Dwpt 6 hour altimeter (in) sea level (mb) 1 hr 3 hr 6 hr
Max. Min.
08 17:53 N 15 G 22 10.00 Fair CLR 91.9 23 8% 88 29.86 1006.9
08 16:53 N 13 G 21 10.00 Fair CLR 93 23 93.9 82.9 8% 88 29.87 1007.0
08 15:53 W 12 G 18 10.00 Fair CLR 93.9 25 8% 89 29.88 1007.3
08 14:53 N 14 G 24 10.00 Fair CLR 93 24.1 8% 88 29.9 1008.0
08 13:53 W 13 G 21 10.00 Fair CLR 91 28.9 11% 87 29.92 1008.8
08 12:53 NW 9 G 22 10.00 Fair CLR 90 28.9 11% 86 29.95 1009.4
08 11:53 NW 5 10.00 Fair CLR 87.1 34 15% 84 29.97 1010.5
08 10:53 Vrbl 3 10.00 Fair CLR 84 34 84 59 17% 81 30 1011.4
08 09:53 NW 3 10.00 Fair CLR 79 34 20% 78 30.01 1012.0
08 08:53 Calm 10.00 Fair CLR 73.9 37 26% 30.02 1012.4
08 07:53 S 3 10.00 Fair CLR 68 37 32% 30.01 1012.5
08 06:53 S 3 10.00 Fair CLR 61 37 41% 30.01 1012.5
08 05:53 SE 5 10.00 Fair CLR 59 37 44% 29.99 1011.6
08 04:53 SE 6 10.00 Fair CLR 61 36 72 60.1 39% 29.97 1011.0
08 03:53 Calm 10.00 Fair CLR 61 37.9 43% 29.96 1010.8
08 02:53 SE 7 10.00 Fair CLR 63 36 37% 29.95 1010.3
08 01:53 SE 6 10.00 Fair CLR 64.9 36 34% 29.96 1010.5
08 00:53 SE 6 10.00 Fair CLR 69.1 36 30% 29.98 1011.0
07 23:53 NE 3 10.00 Fair CLR 68 35.1 30% 29.98 1011.1
07 22:53 S 6 10.00 Fair CLR 71.1 34 88 71.1 26% 29.98 1011.2
07 21:53 SE 9 10.00 Fair CLR 73 33.1 23% 29.99 1011.6
07 20:53 SE 6 10.00 Fair CLR 75.9 32 20% 76 29.95 1010.4
07 19:53 SW 10 G 23 10.00 Fair CLR 78.1 30.9 18% 77 29.91 1009.2
07 18:53 S 25 G 37 10.00 Fair and Breezy CLR 81 30 16% 79 29.89 1008.4
07 17:53 NW 9 10.00 Fair CLR 86 26.1 11% 83 29.87 1007.6
07 16:53 N 5 10.00 Fair CLR 88 26.1 88 79 10% 84 29.86 1007.2
07 15:53 NW 6 10.00 Fair CLR 87.1 25 10% 84 29.87 1007.3
07 14:53 N 8 G 24 10.00 Fair CLR 86 24.1 10% 83 29.88 1007.8
07 13:53 N 7 10.00 Fair CLR 84.9 23 10% 82 29.9 1008.5
07 12:53 Calm 10.00 Fair CLR 82.9 24.1 11% 80 29.92 1009.1
07 11:53 N 9 10.00 Fair CLR 82.9 27 13% 80 29.94 1009.9
07 10:53 Vrbl 3 10.00 Fair CLR 80.1 30 80.1 55 16% 78 29.97 1010.7
07 09:53 Calm 10.00 Fair CLR 75 30 19% 76 29.99 1011.6
07 08:53 Calm 10.00 Fair CLR 69.1 30.9 24% 30.01 1012.4
07 07:53 Calm 10.00 Fair CLR 64 32 30% 30.01 1012.7
07 06:53 S 3 10.00 Fair CLR 59 33.1 38% 30.01 1013.0
07 05:53 SE 7 10.00 Fair CLR 55.9 30.9 39% 30 1012.6
07 04:53 SE 5 10.00 Fair CLR 57 34 69.1 55.9 42% 29.99 1012.3
07 03:53 SE 8 10.00 Fair CLR 57.9 37 46% 30 1012.5
07 02:53 SE 3 10.00 Fair CLR 61 36 39% 30 1012.4
07 01:53 S 5 10.00 Fair CLR 62.1 37 40% 30 1012.5
07 00:53 SW 3 10.00 Fair CLR 64 30.9 29% 30.01 1012.8
06 23:53 W 5 10.00 Fair CLR 64 32 30% 30.01 1012.9
06 22:53 NW 6 10.00 Fair CLR 69.1 28 79 69.1 22% 30.01 1012.6
06 21:53 NW 7 10.00 Fair CLR 71.1 27 19% 30 1012.4
06 20:53 NW 7 10.00 Fair CLR 72 27 19% 29.99 1012.1
06 19:53 NW 6 10.00 Fair CLR 73 28.9 19% 29.97 1011.6
06 18:53 N 7 10.00 Fair CLR 75.9 28.9 18% 76 29.96 1011.2
06 17:53 N 12 G 17 10.00 Fair CLR 78.1 27 15% 77 29.95 1011.2
06 16:53 NW 5 10.00 Fair CLR 78.1 27 79 68 15% 77 29.95 1010.9
06 15:53 W 5 10.00 Fair CLR 78.1 21.9 12% 77 29.96 1011.2
06 14:53 SW 3 10.00 Fair CLR 75 32 21% 76 29.98 1011.8
06 13:53 Calm 10.00 Fair CLR 75 34 22% 76 30 1012.6
06 12:53 Calm 10.00 Fair CLR 73 32 22% 30.02 1013.4
06 11:53 Calm 10.00 Fair CLR 70 34 27% 30.04 1014.0
06 10:53 Vrbl 5 10.00 Fair CLR 69.1 37 69.1 52 31% 30.05 1014.5
06 09:53 Calm 10.00 Fair CLR 64.9 41 42% 30.05 1014.5
06 08:53 S 3 10.00 Fair CLR 62.1 43 50% 30.04 1014.4
06 07:53 SE 5 10.00 Fair CLR 57.9 44.1 60% 30.04 1014.6
06 06:53 SE 3 10.00 Fair CLR 54 44.1 69% 30.04 1014.5
06 05:53 S 5 10.00 Fair CLR 52 44.1 75% 30.03 1014.0
06 04:53 SE 6 10.00 Fair CLR 53.1 44.1 63 53.1 72% 30.01 1013.3
06 03:53 S 6 10.00 Fair CLR 55 43 64% 30 1012.8
06 02:53 S 5 10.00 Fair CLR 57 43 60% 29.99 1012.4
06 01:53 S 6 10.00 A Few Clouds FEW065 55.9 46 70% 29.99 1012.5
06 00:53 SW 5 10.00 Mostly Cloudy BKN070 59 45 60% 29.99 1012.4
05 23:53 W 7 10.00 A Few Clouds FEW075 61 44.1 54% 29.99 1012.4
05 22:53 W 7 10.00 Fair CLR 63 44.1 75 63 50% 29.99 1012.3
05 21:53 W 9 10.00 Fair CLR 64 44.1 48% 29.96 1011.6
05 20:53 W 9 10.00 Fair CLR 64.9 44.1 47% 29.94 1010.9
05 19:53 W 9 10.00 Fair CLR 66.9 37 33% 29.91 1009.9
05 18:53 W 14 G 22 10.00 Fair CLR 70 37.9 31% 29.88 1008.7
Date Time (mst) Wind (mph) Vis. (mi.) Weather Sky Cond. Air Dwpt Max. Min. Relative Humidity Wind Chill (°F) Heat Index (°F) altimeter (in) sea level (mb) 1 hr 3 hr 6 hr
6 hour
Temperature (ºF) Pressure Precipitation (in)